ARG2562 SAWH-SPJC
Flight info
| Callsign | ARG2562 |
|---|---|
| Flight time | N/A |
| Altitude | 36000 |
| Route | UGIRA2B UGIRA UW63 MUBES UW42 GAL DCT BOKUK UT658 ESQ UW44 BAR DCT SOSTA DCT TIRLO DCT ANPUK DCT LIVOR/N0485F380 UL780 SORTA DCT ILMAR |
| Aircraft | B77W/H-SDE1E2E3FGHIJ2J3J4J5M1RWXY/LB1D1 |
Departure
| Time | N/A |
|---|---|
| Airport | Ushuaia - Malvinas Argentinas International Airport (SAWH) |
Arrival
| Time | 2026-05-07 03:40 |
|---|---|
| Airport | Jorge Chávez International Airport (SPJC) |
| Time | Latitude | Longitude | Altitude | Speed | Heading |
|---|---|---|---|---|---|
| 2026-05-07 02:01 | -28.26202 | -74.40798 | 36103 ft | 496 kts | 352° |
| 2026-05-07 02:01 | -28.19293 | -74.40937 | 36103 ft | 496 kts | 351° |
| 2026-05-07 02:02 | -28.12399 | -74.41083 | 36100 ft | 495 kts | 351° |
| 2026-05-07 02:02 | -28.05541 | -74.41227 | 36101 ft | 495 kts | 351° |
| 2026-05-07 02:03 | -27.98646 | -74.41370 | 36103 ft | 495 kts | 351° |
| 2026-05-07 02:03 | -27.91773 | -74.41511 | 36099 ft | 492 kts | 351° |
| 2026-05-07 02:04 | -27.84928 | -74.41651 | 36101 ft | 492 kts | 351° |
| 2026-05-07 02:04 | -27.78086 | -74.41793 | 36104 ft | 492 kts | 351° |
| 2026-05-07 02:05 | -27.71248 | -74.41934 | 36099 ft | 491 kts | 351° |
| 2026-05-07 02:05 | -27.64406 | -74.42074 | 36105 ft | 491 kts | 351° |
| 2026-05-07 02:06 | -27.57571 | -74.42214 | 36100 ft | 490 kts | 351° |
| 2026-05-07 02:06 | -27.50795 | -74.42353 | 36101 ft | 490 kts | 351° |
| 2026-05-07 02:07 | -27.43964 | -74.42492 | 36103 ft | 490 kts | 351° |
| 2026-05-07 02:07 | -27.33754 | -74.42700 | 36100 ft | 488 kts | 351° |
| 2026-05-07 02:08 | -27.26959 | -74.42838 | 36097 ft | 488 kts | 351° |
| 2026-05-07 02:08 | -27.20181 | -74.42976 | 36070 ft | 486 kts | 351° |
| 2026-05-07 02:09 | -27.13417 | -74.43113 | 36067 ft | 485 kts | 351° |
| 2026-05-07 02:09 | -27.06710 | -74.43249 | 36065 ft | 484 kts | 350° |
| 2026-05-07 02:10 | -26.99978 | -74.43386 | 36065 ft | 483 kts | 350° |
| 2026-05-07 02:10 | -26.93265 | -74.43522 | 36067 ft | 481 kts | 350° |
| 2026-05-07 02:11 | -26.86582 | -74.43656 | 36080 ft | 480 kts | 350° |
| 2026-05-07 02:11 | -26.79902 | -74.43791 | 36083 ft | 479 kts | 350° |
| 2026-05-07 02:12 | -26.73241 | -74.43927 | 36082 ft | 478 kts | 349° |
| 2026-05-07 02:12 | -26.66606 | -74.44060 | 36084 ft | 476 kts | 349° |
| 2026-05-07 02:13 | -26.53110 | -74.44331 | 36083 ft | 475 kts | 349° |
| 2026-05-07 02:13 | -26.46556 | -74.44461 | 36082 ft | 473 kts | 349° |
| 2026-05-07 02:14 | -26.39981 | -74.44593 | 36082 ft | 472 kts | 349° |
| 2026-05-07 02:14 | -26.33415 | -74.44725 | 36085 ft | 471 kts | 349° |
| 2026-05-07 02:15 | -26.27965 | -74.44834 | 36082 ft | 470 kts | 349° |
| 2026-05-07 02:15 | -26.21408 | -74.44967 | 36084 ft | 470 kts | 349° |
| 2026-05-07 02:16 | -26.14866 | -74.45099 | 36083 ft | 471 kts | 348° |
| 2026-05-07 02:16 | -26.08310 | -74.45230 | 36084 ft | 471 kts | 348° |
| 2026-05-07 02:17 | -26.01768 | -74.45361 | 36085 ft | 470 kts | 348° |
| 2026-05-07 02:17 | -25.95225 | -74.45489 | 36087 ft | 469 kts | 348° |
| 2026-05-07 02:18 | -25.88714 | -74.45615 | 36079 ft | 466 kts | 348° |
| 2026-05-07 02:18 | -25.82232 | -74.45746 | 36078 ft | 466 kts | 348° |
| 2026-05-07 02:19 | -25.75731 | -74.45878 | 36074 ft | 468 kts | 348° |
| 2026-05-07 02:19 | -25.69220 | -74.46008 | 36077 ft | 469 kts | 348° |
| 2026-05-07 02:20 | -25.62696 | -74.46135 | 36073 ft | 469 kts | 348° |
| 2026-05-07 02:20 | -25.56221 | -74.46262 | 36075 ft | 468 kts | 348° |
| 2026-05-07 02:21 | -25.49708 | -74.46391 | 36075 ft | 469 kts | 348° |
| 2026-05-07 02:21 | -25.43177 | -74.46520 | 36077 ft | 469 kts | 348° |
| 2026-05-07 02:22 | -25.36656 | -74.46649 | 36076 ft | 469 kts | 348° |
| 2026-05-07 02:22 | -25.30132 | -74.46777 | 36073 ft | 469 kts | 348° |
| 2026-05-07 02:23 | -25.23605 | -74.46905 | 36074 ft | 469 kts | 348° |
| 2026-05-07 02:23 | -25.17073 | -74.47034 | 36076 ft | 469 kts | 348° |
| 2026-05-07 02:24 | -25.10551 | -74.47161 | 36075 ft | 469 kts | 348° |
| 2026-05-07 02:24 | -25.04064 | -74.47289 | 36074 ft | 469 kts | 348° |
| 2026-05-07 02:25 | -24.97536 | -74.47417 | 36076 ft | 469 kts | 348° |
| 2026-05-07 02:25 | -24.91002 | -74.47544 | 36074 ft | 469 kts | 348° |
| 2026-05-07 02:26 | -24.84463 | -74.47673 | 36076 ft | 470 kts | 348° |
| 2026-05-07 02:26 | -24.77915 | -74.47803 | 36074 ft | 471 kts | 348° |
| 2026-05-07 02:27 | -24.71357 | -74.47929 | 36072 ft | 471 kts | 348° |
| 2026-05-07 02:27 | -24.64803 | -74.48055 | 36073 ft | 471 kts | 348° |
| 2026-05-07 02:28 | -24.58249 | -74.48183 | 36074 ft | 471 kts | 348° |
| 2026-05-07 02:28 | -24.51695 | -74.48310 | 36076 ft | 471 kts | 348° |
| 2026-05-07 02:29 | -24.45180 | -74.48437 | 36063 ft | 471 kts | 348° |
| 2026-05-07 02:29 | -24.38626 | -74.48564 | 36067 ft | 471 kts | 348° |
| 2026-05-07 02:30 | -24.32068 | -74.48691 | 36070 ft | 471 kts | 348° |
| 2026-05-07 02:30 | -24.25619 | -74.49256 | 36063 ft | 459 kts | 340° |
| 2026-05-07 02:31 | -24.19508 | -74.50929 | 36071 ft | 450 kts | 334° |
| 2026-05-07 02:31 | -24.13501 | -74.52892 | 36061 ft | 450 kts | 334° |
| 2026-05-07 02:32 | -24.07498 | -74.54839 | 36064 ft | 450 kts | 334° |
| 2026-05-07 02:32 | -24.01480 | -74.56770 | 36062 ft | 450 kts | 334° |
| 2026-05-07 02:33 | -23.95465 | -74.58691 | 36060 ft | 451 kts | 334° |
| 2026-05-07 02:33 | -23.89473 | -74.60601 | 36065 ft | 452 kts | 334° |
| 2026-05-07 02:34 | -23.83436 | -74.62522 | 36062 ft | 451 kts | 334° |
| 2026-05-07 02:34 | -23.77421 | -74.64434 | 36061 ft | 450 kts | 334° |
| 2026-05-07 02:35 | -23.71406 | -74.66346 | 36063 ft | 450 kts | 334° |
| 2026-05-07 02:35 | -23.65367 | -74.68266 | 36067 ft | 451 kts | 334° |
| 2026-05-07 02:36 | -23.59334 | -74.70180 | 36070 ft | 451 kts | 334° |
| 2026-05-07 02:36 | -23.53348 | -74.72075 | 36061 ft | 450 kts | 334° |
| 2026-05-07 02:37 | -23.47322 | -74.73985 | 36069 ft | 451 kts | 335° |
| 2026-05-07 02:37 | -23.41298 | -74.75891 | 36037 ft | 452 kts | 335° |
| 2026-05-07 02:38 | -23.35260 | -74.77799 | 36047 ft | 452 kts | 335° |
| 2026-05-07 02:38 | -23.29220 | -74.79705 | 36035 ft | 451 kts | 335° |
| 2026-05-07 02:39 | -23.23185 | -74.81610 | 36035 ft | 452 kts | 335° |
| 2026-05-07 02:39 | -23.17136 | -74.83517 | 36049 ft | 452 kts | 335° |
| 2026-05-07 02:40 | -23.11089 | -74.85420 | 36038 ft | 452 kts | 335° |
| 2026-05-07 02:40 | -23.05084 | -74.87309 | 36047 ft | 452 kts | 335° |
| 2026-05-07 02:41 | -22.99046 | -74.89205 | 36035 ft | 452 kts | 335° |
| 2026-05-07 02:41 | -22.93005 | -74.91102 | 36046 ft | 452 kts | 335° |
| 2026-05-07 02:42 | -22.86956 | -74.93001 | 36037 ft | 453 kts | 335° |
| 2026-05-07 02:42 | -22.80898 | -74.94899 | 36033 ft | 452 kts | 335° |
| 2026-05-07 02:43 | -22.74851 | -74.96791 | 36037 ft | 452 kts | 335° |
| 2026-05-07 02:43 | -22.68807 | -74.98682 | 36040 ft | 452 kts | 335° |
| 2026-05-07 02:44 | -22.62749 | -75.00576 | 36038 ft | 453 kts | 336° |
| 2026-05-07 02:44 | -22.56687 | -75.02469 | 36036 ft | 453 kts | 336° |
| 2026-05-07 02:45 | -22.50663 | -75.04347 | 36035 ft | 453 kts | 336° |
| 2026-05-07 02:45 | -22.44598 | -75.06238 | 36036 ft | 453 kts | 336° |
| 2026-05-07 02:46 | -22.38538 | -75.08125 | 36034 ft | 453 kts | 336° |
| 2026-05-07 02:46 | -22.32475 | -75.10011 | 36034 ft | 453 kts | 336° |
| 2026-05-07 02:47 | -22.26407 | -75.11897 | 36047 ft | 454 kts | 336° |
| 2026-05-07 02:47 | -22.20373 | -75.13771 | 36034 ft | 453 kts | 336° |
| 2026-05-07 02:48 | -22.14305 | -75.15653 | 36032 ft | 453 kts | 336° |
| 2026-05-07 02:48 | -22.08258 | -75.17528 | 36027 ft | 452 kts | 336° |
| 2026-05-07 02:49 | -22.02207 | -75.19402 | 36029 ft | 453 kts | 336° |
| 2026-05-07 02:49 | -21.96143 | -75.21280 | 36028 ft | 453 kts | 337° |
| 2026-05-07 02:50 | -21.90078 | -75.23154 | 36029 ft | 454 kts | 337° |
| 2026-05-07 02:50 | -21.84002 | -75.25031 | 36025 ft | 454 kts | 337° |
| 2026-05-07 02:51 | -21.77924 | -75.26907 | 36027 ft | 454 kts | 337° |
| 2026-05-07 02:51 | -21.71840 | -75.28783 | 36029 ft | 454 kts | 337° |
| 2026-05-07 02:52 | -21.65762 | -75.30655 | 36030 ft | 454 kts | 337° |
| 2026-05-07 02:52 | -21.59680 | -75.32527 | 36027 ft | 454 kts | 337° |
| 2026-05-07 02:53 | -21.53634 | -75.34387 | 36029 ft | 454 kts | 337° |
| 2026-05-07 02:53 | -21.47550 | -75.36257 | 36028 ft | 454 kts | 337° |
| 2026-05-07 02:54 | -21.41468 | -75.38123 | 36026 ft | 454 kts | 337° |
| 2026-05-07 02:54 | -21.35388 | -75.39988 | 36028 ft | 454 kts | 337° |
| 2026-05-07 02:55 | -21.29304 | -75.41854 | 36029 ft | 454 kts | 337° |
| 2026-05-07 02:55 | -21.23223 | -75.43716 | 36027 ft | 454 kts | 337° |
| 2026-05-07 02:56 | -21.17179 | -75.45566 | 36029 ft | 455 kts | 337° |
| 2026-05-07 02:56 | -21.11094 | -75.47430 | 36027 ft | 455 kts | 338° |
| 2026-05-07 02:57 | -21.05001 | -75.49290 | 36028 ft | 455 kts | 338° |
| 2026-05-07 02:57 | -20.98906 | -75.51151 | 36017 ft | 455 kts | 338° |
| 2026-05-07 02:58 | -20.92817 | -75.53009 | 36020 ft | 455 kts | 338° |
| 2026-05-07 02:58 | -20.86768 | -75.54854 | 36019 ft | 455 kts | 338° |
| 2026-05-07 02:59 | -20.80676 | -75.56708 | 36019 ft | 455 kts | 338° |
| 2026-05-07 02:59 | -20.74578 | -75.58564 | 36018 ft | 455 kts | 338° |
| 2026-05-07 03:00 | -20.68489 | -75.60416 | 36019 ft | 455 kts | 338° |
| 2026-05-07 03:00 | -20.62398 | -75.62265 | 36019 ft | 455 kts | 338° |
| 2026-05-07 03:01 | -20.56310 | -75.64113 | 36013 ft | 456 kts | 338° |
| 2026-05-07 03:01 | -20.50147 | -75.65987 | 36015 ft | 463 kts | 338° |
| 2026-05-07 03:02 | -20.43987 | -75.67853 | 36008 ft | 462 kts | 338° |
| 2026-05-07 03:02 | -20.37798 | -75.69724 | 36007 ft | 462 kts | 338° |
| 2026-05-07 03:03 | -20.31618 | -75.71591 | 36010 ft | 462 kts | 338° |
| 2026-05-07 03:03 | -20.25431 | -75.73463 | 36008 ft | 462 kts | 338° |
| 2026-05-07 03:04 | -20.19234 | -75.75335 | 36010 ft | 462 kts | 338° |
| 2026-05-07 03:04 | -20.14092 | -75.76886 | 36008 ft | 462 kts | 338° |
| 2026-05-07 03:05 | -20.07889 | -75.78757 | 36011 ft | 463 kts | 338° |
| 2026-05-07 03:05 | -20.01680 | -75.80628 | 36008 ft | 463 kts | 338° |
| 2026-05-07 03:06 | -19.95484 | -75.82493 | 36006 ft | 463 kts | 338° |
| 2026-05-07 03:06 | -19.89278 | -75.84360 | 36010 ft | 463 kts | 338° |
| 2026-05-07 03:07 | -19.83117 | -75.86212 | 36009 ft | 463 kts | 338° |
| 2026-05-07 03:07 | -19.76915 | -75.88074 | 36008 ft | 463 kts | 338° |
| 2026-05-07 03:08 | -19.70712 | -75.89935 | 36009 ft | 463 kts | 338° |
| 2026-05-07 03:08 | -19.64505 | -75.91797 | 36010 ft | 464 kts | 338° |
| 2026-05-07 03:09 | -19.58294 | -75.93657 | 36000 ft | 464 kts | 338° |
| 2026-05-07 03:09 | -19.52076 | -75.95520 | 35997 ft | 463 kts | 338° |
| 2026-05-07 03:10 | -19.45875 | -75.97375 | 35997 ft | 463 kts | 338° |
| 2026-05-07 03:10 | -19.39667 | -75.99231 | 35999 ft | 464 kts | 338° |
| 2026-05-07 03:11 | -19.33453 | -76.01086 | 36002 ft | 464 kts | 338° |
| 2026-05-07 03:11 | -19.27278 | -76.02929 | 36002 ft | 464 kts | 339° |
| 2026-05-07 03:12 | -19.21059 | -76.04782 | 36005 ft | 464 kts | 339° |
| 2026-05-07 03:12 | -19.14807 | -76.06646 | 36001 ft | 464 kts | 339° |
| 2026-05-07 03:13 | -19.08627 | -76.08487 | 35996 ft | 464 kts | 339° |
| 2026-05-07 03:13 | -19.02360 | -76.10351 | 36006 ft | 465 kts | 339° |
| 2026-05-07 03:14 | -18.96175 | -76.12189 | 36001 ft | 465 kts | 339° |
| 2026-05-07 03:15 | -18.62741 | -76.22103 | 36003 ft | 466 kts | 339° |
| 2026-05-07 03:15 | -18.37735 | -76.29481 | 36005 ft | 468 kts | 341° |
| 2026-05-07 03:15 | -18.24613 | -76.30917 | 36018 ft | 477 kts | 352° |
| 2026-05-07 03:16 | -18.11321 | -76.31544 | 36028 ft | 477 kts | 352° |
| 2026-05-07 03:16 | -17.84828 | -76.32935 | 36018 ft | 476 kts | 352° |
| 2026-05-07 03:17 | -17.58311 | -76.34322 | 36017 ft | 478 kts | 352° |
| 2026-05-07 03:17 | -17.31801 | -76.35703 | 35993 ft | 476 kts | 352° |
| 2026-05-07 03:18 | -17.05310 | -76.37081 | 36002 ft | 476 kts | 353° |
| 2026-05-07 03:18 | -16.78848 | -76.38452 | 36000 ft | 475 kts | 353° |
| 2026-05-07 03:19 | -16.52552 | -76.39811 | 36005 ft | 476 kts | 353° |
| 2026-05-07 03:19 | -16.26082 | -76.41176 | 36000 ft | 475 kts | 353° |
| 2026-05-07 03:20 | -15.99634 | -76.42537 | 36075 ft | 476 kts | 353° |
| 2026-05-07 03:20 | -15.73110 | -76.43896 | 36056 ft | 476 kts | 353° |
| 2026-05-07 03:21 | -15.46568 | -76.45253 | 36049 ft | 476 kts | 354° |
| 2026-05-07 03:21 | -15.20220 | -76.46597 | 36033 ft | 477 kts | 354° |
| 2026-05-07 03:22 | -14.93669 | -76.47948 | 36031 ft | 477 kts | 354° |
| 2026-05-07 03:22 | -14.67153 | -76.49294 | 36018 ft | 477 kts | 354° |
| 2026-05-07 03:23 | -14.40704 | -76.50633 | 36007 ft | 477 kts | 354° |
| 2026-05-07 03:23 | -14.27404 | -76.50887 | 35962 ft | 484 kts | 9° |
| 2026-05-07 03:23 | -14.15284 | -76.44494 | 36011 ft | 493 kts | 26° |
| 2026-05-07 03:24 | -13.91216 | -76.30979 | 35990 ft | 491 kts | 25° |
| 2026-05-07 03:24 | -13.66658 | -76.25612 | 35999 ft | 468 kts | 327° |
| 2026-05-07 03:25 | -13.44509 | -76.40037 | 35985 ft | 471 kts | 327° |
| 2026-05-07 03:25 | -13.22577 | -76.54005 | 35115 ft | 448 kts | 327° |
| 2026-05-07 03:25 | -13.11892 | -76.60808 | 31764 ft | 458 kts | 327° |
| 2026-05-07 03:26 | -13.00973 | -76.67750 | 28493 ft | 456 kts | 328° |
| 2026-05-07 03:26 | -12.90264 | -76.74551 | 25465 ft | 450 kts | 329° |
| 2026-05-07 03:26 | -12.79641 | -76.81291 | 22511 ft | 444 kts | 328° |
| 2026-05-07 03:26 | -12.69256 | -76.87874 | 20099 ft | 428 kts | 328° |
| 2026-05-07 03:27 | -12.59600 | -76.93991 | 19019 ft | 389 kts | 329° |
| 2026-05-07 03:27 | -12.50400 | -76.98918 | 17996 ft | 360 kts | 336° |
| 2026-05-07 03:27 | -12.41580 | -77.03214 | 16824 ft | 342 kts | 335° |
| 2026-05-07 03:27 | -12.33883 | -77.07032 | 15702 ft | 331 kts | 335° |
| 2026-05-07 03:28 | -12.25803 | -77.11044 | 14416 ft | 322 kts | 334° |
| 2026-05-07 03:28 | -12.17827 | -77.15003 | 13059 ft | 317 kts | 334° |
| 2026-05-07 03:28 | -12.09968 | -77.18901 | 11856 ft | 306 kts | 334° |
| 2026-05-07 03:28 | -12.02476 | -77.22616 | 10815 ft | 293 kts | 334° |
| 2026-05-07 03:29 | -11.95352 | -77.26306 | 9779 ft | 281 kts | 333° |
| 2026-05-07 03:29 | -11.88443 | -77.29801 | 8655 ft | 274 kts | 335° |
| 2026-05-07 03:29 | -11.83198 | -77.29351 | 7513 ft | 266 kts | 47° |
| 2026-05-07 03:29 | -11.81047 | -77.25109 | 6931 ft | 243 kts | 84° |
| 2026-05-07 03:30 | -11.84584 | -77.20267 | 5795 ft | 218 kts | 145° |
| 2026-05-07 03:30 | -11.89861 | -77.17440 | 4644 ft | 198 kts | 153° |
| 2026-05-07 03:30 | -11.94625 | -77.15152 | 3270 ft | 183 kts | 153° |
| 2026-05-07 03:30 | -11.98692 | -77.13169 | 2205 ft | 156 kts | 153° |
| 2026-05-07 03:31 | -12.02077 | -77.11485 | 2027 ft | 145 kts | 154° |
| 2026-05-07 03:31 | -12.05928 | -77.09565 | 1925 ft | 153 kts | 155° |
| 2026-05-07 03:31 | -12.09985 | -77.08671 | 2295 ft | 153 kts | 198° |
| 2026-05-07 03:31 | -12.10979 | -77.09483 | 2444 ft | 163 kts | 243° |
| 2026-05-07 03:32 | -12.11066 | -77.10637 | 2617 ft | 170 kts | 288° |
| 2026-05-07 03:32 | -12.10335 | -77.11573 | 2791 ft | 172 kts | 327° |
| 2026-05-07 03:32 | -12.09293 | -77.12205 | 3060 ft | 187 kts | 329° |
| 2026-05-07 03:32 | -12.08133 | -77.12911 | 3026 ft | 197 kts | 329° |
| 2026-05-07 03:33 | -12.06962 | -77.13622 | 3028 ft | 198 kts | 329° |
| 2026-05-07 03:33 | -12.05777 | -77.14339 | 3010 ft | 197 kts | 329° |
| 2026-05-07 03:33 | -12.04589 | -77.15050 | 3004 ft | 196 kts | 329° |
| 2026-05-07 03:33 | -12.03414 | -77.15756 | 3011 ft | 196 kts | 329° |
| 2026-05-07 03:34 | -12.02238 | -77.16459 | 3028 ft | 196 kts | 330° |
| 2026-05-07 03:34 | -12.01053 | -77.17165 | 3032 ft | 197 kts | 330° |
| 2026-05-07 03:34 | -11.99904 | -77.17881 | 2978 ft | 197 kts | 321° |
| 2026-05-07 03:34 | -11.98882 | -77.18885 | 2604 ft | 209 kts | 322° |
| 2026-05-07 03:35 | -11.97640 | -77.19704 | 2387 ft | 215 kts | 329° |
| 2026-05-07 03:35 | -11.96339 | -77.20478 | 2255 ft | 217 kts | 329° |
| 2026-05-07 03:35 | -11.95028 | -77.21251 | 2184 ft | 216 kts | 329° |
| 2026-05-07 03:35 | -11.93662 | -77.21860 | 2083 ft | 216 kts | 352° |
| 2026-05-07 03:36 | -11.92207 | -77.21642 | 2047 ft | 213 kts | 28° |
| 2026-05-07 03:36 | -11.91188 | -77.20660 | 2029 ft | 195 kts | 64° |
| 2026-05-07 03:36 | -11.90971 | -77.19460 | 2027 ft | 156 kts | 96° |
| 2026-05-07 03:36 | -11.91048 | -77.18318 | 2041 ft | 165 kts | 96° |
| 2026-05-07 03:37 | -11.91115 | -77.17130 | 2033 ft | 168 kts | 97° |
| 2026-05-07 03:37 | -11.91518 | -77.16064 | 2004 ft | 152 kts | 136° |
| 2026-05-07 03:37 | -11.92355 | -77.15593 | 2053 ft | 137 kts | 157° |
| 2026-05-07 03:37 | -11.93227 | -77.15181 | 1971 ft | 141 kts | 155° |
| 2026-05-07 03:38 | -11.94142 | -77.14800 | 1534 ft | 142 kts | 158° |
| 2026-05-07 03:38 | -11.95047 | -77.14407 | 1020 ft | 137 kts | 162° |
| 2026-05-07 03:38 | -11.95961 | -77.14133 | 751 ft | 140 kts | 163° |
| 2026-05-07 03:38 | -11.96893 | -77.13841 | 651 ft | 140 kts | 162° |
| 2026-05-07 03:39 | -11.97815 | -77.13518 | 522 ft | 141 kts | 159° |
| 2026-05-07 03:39 | -11.98710 | -77.13104 | 411 ft | 140 kts | 154° |
| 2026-05-07 03:39 | -11.99574 | -77.12682 | 274 ft | 141 kts | 156° |
| 2026-05-07 03:39 | -12.00471 | -77.12263 | 125 ft | 140 kts | 155° |
| 2026-05-07 03:40 | -12.01307 | -77.11860 | 62 ft | 126 kts | 155° |
| 2026-05-07 03:40 | -12.01982 | -77.11531 | 65 ft | 85 kts | 154° |
| 2026-05-07 03:40 | -12.02243 | -77.11329 | 86 ft | 30 kts | 134° |
| 2026-05-07 03:40 | -12.02358 | -77.11175 | 93 ft | 11 kts | 118° |
| 2026-05-07 03:41 | -12.02371 | -77.11103 | 98 ft | 11 kts | 75° |
| 2026-05-07 03:41 | -12.02340 | -77.11032 | 96 ft | 11 kts | 65° |
| 2026-05-07 03:41 | -12.02315 | -77.10981 | 99 ft | 2 kts | 63° |
| 2026-05-07 03:41 | -12.02311 | -77.10972 | 96 ft | 0 kts | 64° |